This is the latest recevied weather packets stored in our database for station/object N5CNB-2. If no packets are shown the sender has not sent any weather packets the latest 10 day(s).
| Time | Temp. | Humidity | Pressure | Rain* | Wind** | Luminosity | Snow |
|---|---|---|---|---|---|---|---|
| 1777871751 | - | - | 1018.1 hPa | 0 mm | - | - | - |
| 1777870858 | - | - | 1018.4 hPa | 0 mm | - | - | - |
| 1777869957 | - | - | 1018.6 hPa | 0 mm | - | - | - |
| 1777869054 | 16.67° C | 73% | 1018.6 hPa | 0 mm | - | - | - |
| 1777868154 | 17.22° C | 72% | 1018.5 hPa | 0 mm | - | - | - |
| 1777867255 | 17.22° C | 71% | 1018.5 hPa | 0 mm | - | - | - |
| 1777866374 | 17.78° C | 70% | 1018.8 hPa | 0 mm | - | - | - |
| 1777865450 | 18.33° C | 69% | 1018.7 hPa | 0 mm | - | - | - |
| 1777864555 | 18.89° C | 67% | 1018.3 hPa | 0 mm | - | - | - |
| 1777863654 | 18.89° C | 66% | 1018.5 hPa | 0 mm | - | - | - |
| 1777862753 | 19.44° C | 65% | 1018.2 hPa | 0 mm | - | - | - |
| 1777861854 | 19.44° C | 66% | 1017.9 hPa | 0 mm | - | - | - |
| 1777860957 | 19.44° C | 67% | 1017.8 hPa | 0 mm | - | - | - |
| 1777860063 | 19.44° C | 67% | 1017.9 hPa | 0 mm | - | - | - |
| 1777859179 | 19.44° C | 67% | 1017.8 hPa | 0 mm | - | - | - |
| 1777858255 | 19.44° C | 66% | 1017.6 hPa | 0 mm | - | - | - |
| 1777857362 | 21.11° C | 63% | 1017.5 hPa | 0 mm | - | - | - |
| 1777856459 | 22.78° C | 56% | 1017.3 hPa | 0 mm | - | - | - |
| 1777855552 | 23.89° C | 49% | 1017.4 hPa | 0 mm | - | - | - |
| 1777854659 | 24.44° C | 47% | 1017.6 hPa | 0 mm | - | - | - |
| 1777853756 | 23.89° C | 48% | 1017.6 hPa | 0 mm | - | - | - |
| 1777852857 | 24.44° C | 46% | 1017.8 hPa | 0 mm | - | - | - |
| 1777851953 | 25° C | 44% | 1017.7 hPa | 0 mm | - | - | - |
| 1777851054 | 25° C | 43% | 1017.7 hPa | 0 mm | - | - | - |
| 1777850151 | 25.56° C | 44% | 1017.9 hPa | 0 mm | - | - | - |
* Rain latest hour (hover to see other rain measurements)
** Current wind speed in m/s (hover to see current wind gust speed)